createdAt,value
2023-03-03T00:00:28.620Z,102619.34
2023-03-03T00:05:35.720Z,102605.63
2023-03-03T00:10:38.198Z,102608.16
2023-03-03T00:15:40.111Z,102612.53
2023-03-03T00:20:41.899Z,102608.31
2023-03-03T00:25:45.743Z,102599.94
2023-03-03T00:30:47.462Z,102597.25
2023-03-03T00:35:52.173Z,102594.91
2023-03-03T00:40:56.123Z,102599.69
2023-03-03T00:46:00.085Z,102599.84
2023-03-03T00:51:08.214Z,102590.53
2023-03-03T00:56:10.144Z,102595.16
2023-03-03T01:01:11.876Z,102590.69
2023-03-03T01:06:19.223Z,102603.22
2023-03-03T01:11:28.657Z,102590.50
2023-03-03T01:16:34.887Z,102592.25
2023-03-03T01:21:36.570Z,102581.88
2023-03-03T01:26:38.574Z,102596.91
2023-03-03T01:31:40.546Z,102594.44
2023-03-03T01:36:42.334Z,102597.06
2023-03-03T01:41:44.138Z,102591.66
2023-03-03T01:46:56.131Z,102587.09
2023-03-03T01:52:01.683Z,102583.03
2023-03-03T01:57:08.373Z,102574.16
2023-03-03T02:02:12.893Z,102574.16
2023-03-03T02:07:16.706Z,102576.91
2023-03-03T02:12:23.201Z,102571.38
2023-03-03T02:17:25.096Z,102577.22
2023-03-03T02:22:41.262Z,102580.66
2023-03-03T02:27:45.328Z,102579.56
2023-03-03T02:32:47.363Z,102580.72
2023-03-03T02:37:49.232Z,102572.16
2023-03-03T02:42:52.702Z,102566.88
2023-03-03T02:47:56.934Z,102565.47
2023-03-03T02:53:03.373Z,102562.25
2023-03-03T02:58:05.164Z,102559.69
2023-03-03T03:03:07.133Z,102555.50
2023-03-03T03:08:09.984Z,102556.28
2023-03-03T03:13:11.957Z,102551.00
2023-03-03T03:18:18.156Z,102548.88
2023-03-03T03:23:23.418Z,102563.56
2023-03-03T03:28:25.367Z,102568.53
2023-03-03T03:33:28.326Z,102570.06
2023-03-03T03:38:31.651Z,102571.38
2023-03-03T03:43:34.179Z,102571.69
2023-03-03T03:48:40.147Z,102585.09
2023-03-03T03:53:43.990Z,102589.81
2023-03-03T03:58:48.293Z,102586.19
2023-03-03T04:03:57.394Z,102586.47
2023-03-03T04:09:01.702Z,102572.53
2023-03-03T04:14:05.090Z,102571.69
2023-03-03T04:19:10.127Z,102565.00
2023-03-03T04:24:13.571Z,102563.94
2023-03-03T04:29:15.686Z,102556.69
2023-03-03T04:34:20.906Z,102555.47
2023-03-03T04:39:26.025Z,102555.91
2023-03-03T04:44:31.154Z,102556.25
2023-03-03T04:49:33.888Z,102553.78
2023-03-03T04:54:38.741Z,102548.13
2023-03-03T04:59:42.873Z,102540.63
2023-03-03T05:04:44.935Z,102538.25
2023-03-03T05:09:48.956Z,102536.78
2023-03-03T05:14:50.694Z,102529.03
2023-03-03T05:19:57.307Z,102535.25
2023-03-03T05:25:01.710Z,102535.38
2023-03-03T05:30:04.075Z,102538.00
2023-03-03T05:35:06.311Z,102542.97
2023-03-03T05:40:08.820Z,102541.19
2023-03-03T05:45:13.261Z,102550.84
2023-03-03T05:50:18.094Z,102555.81
2023-03-03T05:55:22.387Z,102558.09
2023-03-03T06:00:26.326Z,102563.78
2023-03-03T06:05:30.037Z,102574.50
2023-03-03T06:10:34.220Z,102580.00
2023-03-03T06:15:42.500Z,102587.06
2023-03-03T06:20:44.261Z,102591.47
2023-03-03T06:25:46.142Z,102588.00
2023-03-03T06:30:53.544Z,102584.44
2023-03-03T06:35:55.869Z,102594.03
2023-03-03T06:40:58.278Z,102591.34
2023-03-03T06:46:02.173Z,102587.88
2023-03-03T06:51:24.704Z,102595.88
2023-03-03T06:56:27.222Z,102590.34
2023-03-03T07:01:39.041Z,102610.13
2023-03-03T07:06:42.930Z,102609.81
2023-03-03T07:11:46.585Z,102617.41
2023-03-03T07:16:55.024Z,102614.50
2023-03-03T07:21:57.798Z,102618.66
2023-03-03T07:27:10.799Z,102616.66
2023-03-03T07:32:27.933Z,102624.38
2023-03-03T07:37:41.124Z,102619.13
2023-03-03T07:42:44.256Z,102617.25
2023-03-03T07:48:19.338Z,102627.47
2023-03-03T07:53:34.928Z,102621.94
2023-03-03T07:58:41.012Z,102615.97
2023-03-03T08:03:46.919Z,102619.22
2023-03-03T08:08:49.423Z,102615.06
2023-03-03T08:14:00.902Z,102612.56
2023-03-03T08:19:05.813Z,102617.63
2023-03-03T08:24:11.896Z,102609.63
2023-03-03T08:29:18.296Z,102617.56
2023-03-03T08:34:22.461Z,102603.81
2023-03-03T08:39:24.734Z,102606.28
2023-03-03T08:44:26.469Z,102598.41
2023-03-03T08:49:28.234Z,102593.22
2023-03-03T08:54:30.470Z,102590.56
2023-03-03T08:59:37.784Z,102604.25
2023-03-03T09:04:41.729Z,102603.28
2023-03-03T09:09:43.510Z,102601.13
2023-03-03T09:14:45.258Z,102604.66
2023-03-03T09:19:49.553Z,102610.09
2023-03-03T09:24:56.397Z,102605.59
2023-03-03T09:30:34.950Z,102609.63
2023-03-03T09:35:42.358Z,102616.38
2023-03-03T09:41:15.286Z,102622.50
2023-03-03T09:46:33.836Z,102626.22
2023-03-03T09:51:56.963Z,102621.19
2023-03-03T09:57:16.081Z,102627.56
2023-03-03T10:03:04.505Z,102638.31
2023-03-03T10:08:12.553Z,102636.63
2023-03-03T10:13:34.904Z,102630.50
2023-03-03T10:19:06.454Z,102643.31
2023-03-03T10:24:16.471Z,102638.66
2023-03-03T10:29:29.197Z,102639.25
2023-03-03T10:34:48.492Z,102633.81
2023-03-03T10:40:01.914Z,102627.94
2023-03-03T10:45:21.690Z,102622.63
2023-03-03T10:50:51.654Z,102621.00
2023-03-03T10:56:32.128Z,102629.38
2023-03-03T11:01:36.968Z,102625.34
2023-03-03T11:07:09.311Z,102618.44
2023-03-03T11:12:23.240Z,102621.97
2023-03-03T11:17:49.545Z,102616.38
2023-03-03T11:23:00.972Z,102610.69
2023-03-03T11:28:11.712Z,102605.50
2023-03-03T11:33:19.954Z,102610.56
2023-03-03T11:38:52.265Z,102606.50
2023-03-03T11:44:00.137Z,102608.44
2023-03-03T11:49:22.823Z,102591.19
2023-03-03T11:54:45.958Z,102591.28
2023-03-03T12:00:01.519Z,102594.50
2023-03-03T12:05:34.355Z,102594.41
2023-03-03T12:11:08.324Z,102587.22
2023-03-03T12:16:19.393Z,102570.63
2023-03-03T12:21:39.739Z,102562.88
2023-03-03T12:27:03.383Z,102563.34
2023-03-03T12:32:21.649Z,102567.25
2023-03-03T12:37:30.183Z,102557.06
2023-03-03T12:42:53.820Z,102557.91
2023-03-03T12:48:27.227Z,102551.25
2023-03-03T12:53:58.057Z,102554.00
2023-03-03T12:59:05.133Z,102541.44
2023-03-03T13:04:16.117Z,102540.50
2023-03-03T13:09:31.430Z,102539.88
2023-03-03T13:14:50.291Z,102533.00
2023-03-03T13:20:03.994Z,102535.44
2023-03-03T13:25:39.225Z,102526.66
2023-03-03T13:30:45.918Z,102529.22
2023-03-03T13:35:56.144Z,102515.63
2023-03-03T13:41:18.688Z,102513.88
2023-03-03T13:46:23.126Z,102510.88
2023-03-03T13:51:33.927Z,102507.88
2023-03-03T13:56:46.754Z,102499.63
2023-03-03T14:01:51.487Z,102493.97
2023-03-03T14:07:07.366Z,102494.88
2023-03-03T14:12:41.047Z,102484.53
2023-03-03T14:18:13.925Z,102473.53
2023-03-03T14:23:31.017Z,102460.63
2023-03-03T14:28:39.083Z,102462.00
2023-03-03T14:33:45.811Z,102463.81
2023-03-03T14:38:51.715Z,102461.88
2023-03-03T14:44:33.461Z,102452.28
2023-03-03T14:49:41.111Z,102456.03
2023-03-03T14:54:48.573Z,102447.91
2023-03-03T15:00:25.744Z,102440.59
2023-03-03T15:05:33.728Z,102450.66
2023-03-03T15:10:40.465Z,102439.44
2023-03-03T15:15:55.226Z,102437.97
2023-03-03T15:21:08.661Z,102432.53
2023-03-03T15:26:12.973Z,102421.75
2023-03-03T15:31:34.046Z,102416.31
2023-03-03T15:37:04.391Z,102405.53
2023-03-03T15:42:13.951Z,102414.47
2023-03-03T15:47:45.233Z,102395.38
2023-03-03T15:53:05.465Z,102391.59
2023-03-03T15:58:38.399Z,102393.19
2023-03-03T16:03:48.370Z,102395.59
2023-03-03T16:09:11.924Z,102389.56
2023-03-03T16:14:45.637Z,102379.06
2023-03-03T16:20:03.816Z,102396.34
2023-03-03T16:25:17.155Z,102388.47
2023-03-03T16:30:18.794Z,102387.38
2023-03-03T16:35:40.094Z,102388.22
2023-03-03T16:40:58.191Z,102398.72
2023-03-03T16:46:11.743Z,102402.66
2023-03-03T16:51:52.756Z,102412.06
2023-03-03T16:57:08.562Z,102408.94
2023-03-03T17:02:37.785Z,102408.56
2023-03-03T17:07:58.316Z,102417.41
2023-03-03T17:13:15.617Z,102416.53
2023-03-03T17:18:29.658Z,102419.63
2023-03-03T17:23:46.686Z,102433.84
2023-03-03T17:29:09.089Z,102430.25
2023-03-03T17:34:29.845Z,102434.06
2023-03-03T17:39:42.592Z,102427.06
2023-03-03T17:45:00.419Z,102432.25
2023-03-03T17:50:29.157Z,102430.25
2023-03-03T17:55:35.759Z,102432.25
2023-03-03T18:00:49.674Z,102434.06
2023-03-03T18:06:07.764Z,102430.44
2023-03-03T18:11:22.640Z,102432.16
2023-03-03T18:16:45.708Z,102438.31
2023-03-03T18:22:14.583Z,102442.03
2023-03-03T18:27:37.060Z,102433.34
2023-03-03T18:32:41.817Z,102437.06
2023-03-03T18:37:46.190Z,102445.56
2023-03-03T18:42:53.889Z,102437.94
2023-03-03T18:48:01.621Z,102430.94
2023-03-03T18:53:31.589Z,102436.13
2023-03-03T18:58:43.431Z,102449.28
2023-03-03T19:03:48.042Z,102440.41
2023-03-03T19:08:57.900Z,102443.03
2023-03-03T19:14:25.861Z,102447.47
2023-03-03T19:19:33.682Z,102447.47
2023-03-03T19:24:35.531Z,102442.41
2023-03-03T19:29:46.463Z,102445.91
2023-03-03T19:35:08.377Z,102438.69
2023-03-03T19:40:37.076Z,102443.88
2023-03-03T19:46:23.447Z,102446.53
2023-03-03T19:51:31.336Z,102459.81
2023-03-03T19:56:40.672Z,102443.88
2023-03-03T20:01:53.856Z,102453.66
2023-03-03T20:06:58.587Z,102451.94
2023-03-03T20:12:02.732Z,102461.72
2023-03-03T20:17:25.470Z,102454.50
2023-03-03T20:22:29.540Z,102457.16
2023-03-03T20:27:54.713Z,102464.16
2023-03-03T20:33:30.433Z,102457.03
2023-03-03T20:38:51.418Z,102458.22
2023-03-03T20:44:16.354Z,102458.66
2023-03-03T20:49:24.161Z,102458.78
2023-03-03T20:54:37.485Z,102468.56
2023-03-03T20:59:48.407Z,102466.94
2023-03-03T21:05:08.662Z,102472.50
2023-03-03T21:10:16.661Z,102470.28
2023-03-03T21:15:33.930Z,102464.25
2023-03-03T21:20:35.932Z,102465.69
2023-03-03T21:25:40.783Z,102459.50
2023-03-03T21:31:16.277Z,102456.69
2023-03-03T21:36:46.671Z,102452.91
2023-03-03T21:42:02.102Z,102449.38
2023-03-03T21:47:08.813Z,102453.22
2023-03-03T21:52:14.383Z,102450.03
2023-03-03T21:57:25.081Z,102448.97
2023-03-03T22:02:26.869Z,102438.81
2023-03-03T22:07:28.819Z,102431.69
2023-03-03T22:12:30.646Z,102430.97
2023-03-03T22:17:32.344Z,102422.31
2023-03-03T22:22:36.053Z,102426.44
2023-03-03T22:27:37.734Z,102429.63
2023-03-03T22:32:39.392Z,102420.28
2023-03-03T22:37:43.193Z,102423.03
2023-03-03T22:42:45.184Z,102419.97
2023-03-03T22:47:49.187Z,102410.94
2023-03-03T22:52:50.884Z,102409.03
2023-03-03T22:57:54.950Z,102416.06
2023-03-03T23:02:56.729Z,102411.16
2023-03-03T23:07:58.503Z,102409.25
2023-03-03T23:13:02.591Z,102407.03
2023-03-03T23:18:06.379Z,102399.81
2023-03-03T23:23:10.368Z,102405.72
2023-03-03T23:28:15.440Z,102401.91
2023-03-03T23:33:17.118Z,102394.59
2023-03-03T23:38:18.874Z,102382.06
2023-03-03T23:43:20.537Z,102389.59
2023-03-03T23:48:24.612Z,102398.16
2023-03-03T23:53:28.860Z,102397.81
2023-03-03T23:58:30.768Z,102398.47
